createdAt,value
2017-09-25T00:00:34.910Z,76.00
2017-09-25T00:03:02.616Z,74.90
2017-09-25T00:05:30.202Z,74.50
2017-09-25T00:07:57.821Z,74.80
2017-09-25T00:10:25.496Z,75.90
2017-09-25T00:12:53.112Z,76.60
2017-09-25T00:15:20.729Z,76.90
2017-09-25T00:17:48.421Z,76.50
2017-09-25T00:20:16.035Z,75.90
2017-09-25T00:22:43.653Z,75.80
2017-09-25T00:25:11.322Z,76.00
2017-09-25T00:27:38.951Z,76.10
2017-09-25T00:30:06.567Z,76.20
2017-09-25T00:32:34.255Z,77.00
2017-09-25T00:35:01.875Z,77.50
2017-09-25T00:37:29.495Z,77.50
2017-09-25T00:39:57.171Z,77.70
2017-09-25T00:44:52.402Z,77.90
2017-09-25T00:47:20.091Z,77.30
2017-09-25T00:49:47.714Z,77.40
2017-09-25T00:52:20.157Z,77.30
2017-09-25T00:57:26.945Z,76.40
2017-09-25T01:00:06.455Z,76.70
2017-09-25T01:05:17.419Z,77.20
2017-09-25T01:07:45.111Z,77.30
2017-09-25T01:10:12.732Z,77.10
2017-09-25T01:12:40.359Z,76.70
2017-09-25T01:15:08.025Z,76.80
2017-09-25T01:17:35.635Z,76.40
2017-09-25T01:20:03.259Z,76.80
2017-09-25T01:22:30.943Z,76.20
2017-09-25T01:24:58.570Z,76.60
2017-09-25T01:27:26.188Z,77.20
2017-09-25T01:29:53.859Z,77.70
2017-09-25T01:32:21.474Z,77.70
2017-09-25T01:34:49.096Z,77.70
2017-09-25T01:37:16.787Z,78.00
2017-09-25T01:39:44.403Z,78.00
2017-09-25T01:42:12.021Z,78.60
2017-09-25T01:44:39.695Z,79.00
2017-09-25T01:47:07.313Z,79.50
2017-09-25T01:52:02.620Z,79.60
2017-09-25T01:54:30.238Z,79.70
2017-09-25T01:56:57.860Z,79.30
2017-09-25T01:59:25.534Z,79.00
2017-09-25T02:01:53.160Z,79.00
2017-09-25T02:04:20.776Z,79.20
2017-09-25T02:06:48.453Z,79.80
2017-09-25T02:09:16.076Z,79.70
2017-09-25T02:11:43.697Z,80.00
2017-09-25T02:14:11.394Z,80.00
2017-09-25T02:16:39.016Z,80.30
2017-09-25T02:19:06.634Z,80.70
2017-09-25T02:21:34.355Z,81.10
2017-09-25T02:24:01.975Z,81.00
2017-09-25T02:26:29.592Z,81.00
2017-09-25T02:28:57.276Z,81.60
2017-09-25T02:34:04.043Z,82.00
2017-09-25T02:36:31.661Z,82.10
2017-09-25T02:38:59.287Z,81.50
2017-09-25T02:41:26.982Z,81.50
2017-09-25T02:43:54.605Z,81.20
2017-09-25T02:46:22.237Z,81.30
2017-09-25T02:48:49.906Z,81.10
2017-09-25T02:51:17.524Z,80.60
2017-09-25T02:53:45.174Z,80.20
2017-09-25T02:56:12.834Z,79.60
2017-09-25T02:58:40.459Z,79.90
2017-09-25T03:01:08.073Z,79.60
2017-09-25T03:03:35.767Z,79.60
2017-09-25T03:06:03.390Z,79.40
2017-09-25T03:08:31.831Z,80.00
2017-09-25T03:10:59.506Z,80.10
2017-09-25T03:13:27.125Z,80.50
2017-09-25T03:15:54.752Z,80.70
2017-09-25T03:18:23.375Z,81.10
2017-09-25T03:20:50.994Z,81.40
2017-09-25T03:23:18.613Z,81.60
2017-09-25T03:25:46.318Z,81.90
2017-09-25T03:28:13.938Z,82.30
2017-09-25T03:30:41.567Z,82.70
2017-09-25T03:33:09.259Z,82.70
2017-09-25T03:35:36.884Z,82.60
2017-09-25T03:38:04.504Z,83.00
2017-09-25T03:40:32.223Z,83.30
2017-09-25T03:42:59.844Z,83.30
2017-09-25T03:45:27.458Z,83.20
2017-09-25T03:47:55.139Z,83.00
2017-09-25T03:50:22.762Z,82.10
2017-09-25T03:52:50.383Z,81.10
2017-09-25T03:55:18.080Z,81.30
2017-09-25T04:02:53.487Z,81.00
2017-09-25T04:05:21.107Z,79.80
2017-09-25T04:07:48.790Z,80.20
2017-09-25T04:10:16.411Z,80.30
2017-09-25T04:12:44.026Z,80.60
2017-09-25T04:15:11.741Z,81.20
2017-09-25T04:17:39.345Z,81.30
2017-09-25T04:20:06.975Z,81.80
2017-09-25T04:22:35.614Z,81.70
2017-09-25T04:25:03.241Z,81.20
2017-09-25T04:27:30.862Z,80.70
2017-09-25T04:29:58.545Z,80.10
2017-09-25T04:32:26.165Z,79.50
2017-09-25T04:37:21.450Z,79.20
2017-09-25T04:39:49.071Z,78.70
2017-09-25T04:42:16.835Z,78.80
2017-09-25T04:44:44.526Z,79.20
2017-09-25T04:47:12.143Z,79.00
2017-09-25T04:49:39.760Z,79.10
2017-09-25T04:52:07.438Z,80.30
2017-09-25T04:54:35.060Z,79.10
2017-09-25T04:57:02.682Z,78.60
2017-09-25T04:59:30.353Z,78.30
2017-09-25T05:01:57.970Z,78.20
2017-09-25T05:04:25.583Z,78.50
2017-09-25T05:06:53.279Z,78.70
2017-09-25T05:09:20.896Z,78.50
2017-09-25T05:11:48.516Z,79.30
2017-09-25T05:14:16.916Z,78.80
2017-09-25T05:19:12.152Z,78.90
2017-09-25T05:21:40.283Z,78.60
2017-09-25T05:29:14.571Z,78.80
2017-09-25T05:31:42.298Z,78.40
2017-09-25T05:36:37.600Z,77.30
2017-09-25T05:39:05.219Z,77.60
2017-09-25T05:41:32.837Z,77.80
2017-09-25T05:44:00.512Z,77.70
2017-09-25T05:48:55.736Z,78.20
2017-09-25T05:51:24.382Z,77.00
2017-09-25T05:53:52.011Z,77.30
2017-09-25T05:56:19.636Z,77.40
2017-09-25T06:01:14.929Z,78.40
2017-09-25T06:03:43.379Z,78.40
2017-09-25T06:06:11.047Z,79.50
2017-09-25T06:08:38.667Z,79.40
2017-09-25T06:11:06.289Z,79.50
2017-09-25T06:13:33.971Z,78.70
2017-09-25T06:18:40.538Z,78.70
2017-09-25T06:21:08.156Z,78.40
2017-09-25T06:23:35.781Z,78.80
2017-09-25T06:26:03.513Z,78.70
2017-09-25T06:28:31.129Z,78.90
2017-09-25T06:30:58.755Z,79.30
2017-09-25T06:35:54.064Z,79.60
2017-09-25T06:38:21.682Z,79.20
2017-09-25T06:40:49.384Z,80.40
2017-09-25T06:43:17.010Z,80.80
2017-09-25T06:45:44.635Z,80.70
2017-09-25T06:48:12.307Z,81.00
2017-09-25T06:50:39.938Z,80.60
2017-09-25T06:55:35.244Z,80.10
2017-09-25T06:58:02.862Z,80.20
2017-09-25T07:00:30.489Z,80.00
2017-09-25T07:02:58.192Z,80.00
2017-09-25T07:05:25.811Z,80.00
2017-09-25T07:07:54.389Z,79.10
2017-09-25T07:10:22.067Z,79.10
2017-09-25T07:12:49.691Z,79.50
2017-09-25T07:15:17.313Z,79.60
2017-09-25T07:17:45.024Z,78.10
2017-09-25T07:22:40.270Z,78.20
2017-09-25T07:25:07.955Z,78.50
2017-09-25T07:27:35.584Z,77.40
2017-09-25T07:30:03.214Z,77.80
2017-09-25T07:32:30.890Z,76.70
2017-09-25T07:34:58.515Z,77.10
2017-09-25T07:37:26.140Z,77.60
2017-09-25T07:39:53.841Z,76.10
2017-09-25T07:42:21.451Z,75.90
2017-09-25T07:49:55.889Z,76.20
2017-09-25T07:52:23.512Z,75.50
2017-09-25T07:54:51.191Z,75.80
2017-09-25T07:57:18.808Z,74.40
2017-09-25T07:59:46.436Z,72.60
2017-09-25T08:02:14.149Z,72.10
2017-09-25T08:04:41.791Z,70.30
2017-09-25T08:07:09.415Z,71.00
2017-09-25T08:09:37.097Z,71.60
2017-09-25T08:12:04.735Z,69.90
2017-09-25T08:14:33.097Z,69.70
2017-09-25T08:17:00.778Z,69.70
2017-09-25T08:19:28.400Z,69.90
2017-09-25T08:21:56.025Z,67.80
2017-09-25T08:24:23.729Z,66.50
2017-09-25T08:26:51.364Z,63.60
2017-09-25T08:29:19.925Z,64.10
2017-09-25T08:31:47.614Z,65.60
2017-09-25T08:34:15.250Z,64.50
2017-09-25T08:36:42.871Z,64.60
2017-09-25T08:39:10.570Z,64.10
2017-09-25T08:41:38.192Z,63.10
2017-09-25T08:44:05.820Z,62.90
2017-09-25T08:46:33.514Z,62.30
2017-09-25T08:49:01.137Z,64.60
2017-09-25T08:51:28.768Z,61.30
2017-09-25T08:53:56.465Z,61.80
2017-09-25T08:56:25.041Z,62.60
2017-09-25T08:58:52.678Z,63.20
2017-09-25T09:01:20.352Z,61.20
2017-09-25T09:03:47.965Z,61.70
2017-09-25T09:06:15.589Z,62.50
2017-09-25T09:11:26.980Z,60.90
2017-09-25T09:13:54.659Z,61.00
2017-09-25T09:16:23.190Z,59.80
2017-09-25T09:18:50.808Z,57.50
2017-09-25T09:21:18.495Z,57.20
2017-09-25T09:23:47.078Z,55.90
2017-09-25T09:26:14.703Z,57.40
2017-09-25T09:28:42.411Z,57.90
2017-09-25T09:31:10.037Z,60.40
2017-09-25T09:33:37.653Z,57.10
2017-09-25T09:36:05.382Z,57.00
2017-09-25T09:38:33.017Z,55.20
2017-09-25T09:41:00.643Z,55.90
2017-09-25T09:43:28.312Z,55.80
2017-09-25T09:45:55.928Z,57.20
2017-09-25T09:48:23.544Z,56.60
2017-09-25T09:50:51.243Z,54.70
2017-09-25T09:53:18.878Z,53.10
2017-09-25T09:55:47.354Z,53.40
2017-09-25T09:58:15.028Z,55.50
2017-09-25T10:00:42.647Z,55.40
2017-09-25T10:03:10.263Z,54.10
2017-09-25T10:05:38.757Z,50.50
2017-09-25T10:08:06.375Z,51.30
2017-09-25T10:10:33.996Z,51.20
2017-09-25T10:13:01.689Z,50.30
2017-09-25T10:17:56.920Z,51.00
2017-09-25T10:20:24.605Z,50.90
2017-09-25T10:22:52.225Z,51.80
2017-09-25T10:25:19.842Z,50.80
2017-09-25T10:27:47.522Z,50.40
2017-09-25T10:30:15.143Z,48.60
2017-09-25T10:32:42.764Z,47.30
2017-09-25T10:37:49.548Z,50.50
2017-09-25T10:40:17.242Z,48.50
2017-09-25T10:42:44.859Z,47.40
2017-09-25T10:45:12.472Z,43.20
2017-09-25T10:47:41.124Z,45.70
2017-09-25T10:52:37.203Z,47.60
2017-09-25T10:55:04.904Z,43.40
2017-09-25T10:57:32.549Z,41.00
2017-09-25T11:00:00.163Z,41.10
2017-09-25T11:02:28.823Z,41.50
2017-09-25T11:04:56.318Z,46.70
2017-09-25T11:07:23.940Z,42.00
2017-09-25T11:09:51.619Z,42.60
2017-09-25T11:12:19.243Z,43.10
2017-09-25T11:14:46.859Z,43.80
2017-09-25T11:17:14.552Z,43.90
2017-09-25T11:19:42.174Z,44.20
2017-09-25T11:22:09.800Z,44.80
2017-09-25T11:27:06.045Z,45.70
2017-09-25T11:29:33.663Z,47.60
2017-09-25T11:32:01.370Z,47.80
2017-09-25T11:34:28.989Z,46.80
2017-09-25T11:36:56.608Z,45.80
2017-09-25T11:39:24.291Z,47.30
2017-09-25T11:41:51.915Z,47.80
2017-09-25T11:44:19.537Z,48.30
2017-09-25T11:46:48.156Z,50.10
2017-09-25T11:49:15.771Z,49.90
2017-09-25T11:51:43.387Z,52.20
2017-09-25T11:56:50.171Z,48.60
2017-09-25T11:59:17.851Z,47.60
2017-09-25T12:01:45.475Z,47.30
2017-09-25T12:04:13.098Z,47.80
2017-09-25T12:06:40.779Z,45.40
2017-09-25T12:09:08.392Z,43.10
2017-09-25T12:11:36.015Z,45.80
2017-09-25T12:16:32.248Z,41.30
2017-09-25T12:21:27.527Z,39.10
2017-09-25T12:23:55.144Z,40.80
2017-09-25T12:26:23.580Z,39.50
2017-09-25T12:28:51.256Z,38.90
2017-09-25T12:31:19.815Z,39.70
2017-09-25T12:33:47.435Z,38.80
2017-09-25T12:36:15.134Z,38.20
2017-09-25T12:38:42.756Z,39.30
2017-09-25T12:41:10.369Z,38.40
2017-09-25T12:43:38.052Z,36.90
2017-09-25T12:46:05.668Z,38.70
2017-09-25T12:48:33.293Z,37.60
2017-09-25T12:51:00.960Z,38.00
2017-09-25T12:53:28.604Z,36.10
2017-09-25T12:55:56.226Z,36.90
2017-09-25T12:58:23.904Z,37.10
2017-09-25T13:03:20.070Z,37.20
2017-09-25T13:05:47.764Z,38.20
2017-09-25T13:08:15.384Z,37.30
2017-09-25T13:10:43.002Z,38.20
2017-09-25T13:13:10.678Z,38.30
2017-09-25T13:15:38.293Z,37.50
2017-09-25T13:18:05.916Z,37.80
2017-09-25T13:20:33.595Z,39.00
2017-09-25T13:23:01.218Z,38.10
2017-09-25T13:28:07.998Z,38.20
2017-09-25T13:30:35.610Z,38.30
2017-09-25T13:33:04.181Z,39.30
2017-09-25T13:35:31.856Z,38.40
2017-09-25T13:37:59.475Z,38.50
2017-09-25T13:42:54.762Z,39.10
2017-09-25T13:45:22.381Z,38.80
2017-09-25T13:47:50.004Z,40.20
2017-09-25T13:50:17.671Z,40.50
2017-09-25T13:52:46.113Z,41.00
2017-09-25T13:55:13.730Z,40.30
2017-09-25T13:57:41.414Z,41.10
2017-09-25T14:02:41.896Z,41.30
2017-09-25T14:05:09.518Z,39.80
2017-09-25T14:07:37.144Z,41.30
2017-09-25T14:10:04.821Z,40.60
2017-09-25T14:12:32.437Z,40.70
2017-09-25T14:15:00.060Z,40.10
2017-09-25T14:17:28.684Z,40.90
2017-09-25T14:19:56.310Z,41.70
2017-09-25T14:22:23.926Z,41.40
2017-09-25T14:24:51.605Z,41.90
2017-09-25T14:27:19.234Z,41.50
2017-09-25T14:29:46.850Z,40.80
2017-09-25T14:32:14.519Z,41.40
2017-09-25T14:34:42.142Z,42.40
2017-09-25T14:37:10.654Z,42.00
2017-09-25T14:39:38.356Z,42.90
2017-09-25T14:42:05.983Z,41.20
2017-09-25T14:44:33.603Z,42.10
2017-09-25T14:47:01.277Z,41.30
2017-09-25T14:49:28.894Z,41.40
2017-09-25T14:51:56.512Z,43.20
2017-09-25T14:57:03.276Z,42.80
2017-09-25T14:59:30.963Z,42.00
2017-09-25T15:01:58.632Z,42.50
2017-09-25T15:04:26.220Z,42.10
2017-09-25T15:06:53.884Z,42.60
2017-09-25T15:09:21.500Z,42.70
2017-09-25T15:11:49.120Z,44.50
2017-09-25T15:14:16.827Z,46.70
2017-09-25T15:16:45.262Z,47.70
2017-09-25T15:19:13.836Z,47.10
2017-09-25T15:21:41.507Z,48.60
2017-09-25T15:24:09.130Z,48.70
2017-09-25T15:26:36.763Z,48.60
2017-09-25T15:29:04.447Z,50.00
2017-09-25T15:31:32.831Z,50.00
2017-09-25T15:34:00.452Z,51.00
2017-09-25T15:36:28.125Z,51.10
2017-09-25T15:38:55.765Z,52.10
2017-09-25T15:41:23.442Z,52.60
2017-09-25T15:43:51.116Z,51.30
2017-09-25T15:46:18.728Z,50.80
2017-09-25T15:48:46.351Z,51.60
2017-09-25T15:51:14.979Z,52.20
2017-09-25T15:53:42.592Z,53.80
2017-09-25T15:56:10.217Z,54.70
2017-09-25T15:58:37.894Z,55.00
2017-09-25T16:01:05.517Z,55.40
2017-09-25T16:03:33.136Z,54.40
2017-09-25T16:06:00.838Z,53.60
2017-09-25T16:08:28.467Z,54.30
2017-09-25T16:10:56.084Z,53.70
2017-09-25T16:13:23.776Z,53.50
2017-09-25T16:15:51.394Z,53.20
2017-09-25T16:18:19.021Z,53.20
2017-09-25T16:20:46.704Z,53.20
2017-09-25T16:25:55.477Z,52.70
2017-09-25T16:28:23.095Z,52.30
2017-09-25T16:30:50.713Z,52.30
2017-09-25T16:33:18.409Z,52.30
2017-09-25T16:35:46.887Z,52.40
2017-09-25T16:38:14.506Z,53.10
2017-09-25T16:40:42.182Z,54.70
2017-09-25T16:43:09.798Z,54.70
2017-09-25T16:45:37.423Z,56.10
2017-09-25T16:50:32.738Z,57.30
2017-09-25T16:53:00.354Z,56.30
2017-09-25T16:55:28.032Z,56.40
2017-09-25T16:57:55.655Z,56.60
2017-09-25T17:00:23.279Z,57.60
2017-09-25T17:02:50.949Z,58.10
2017-09-25T17:05:18.594Z,59.90
2017-09-25T17:10:14.845Z,58.60
2017-09-25T17:12:42.459Z,58.90
2017-09-25T17:15:10.077Z,58.50
2017-09-25T17:17:37.758Z,58.50
2017-09-25T17:20:05.386Z,57.60
2017-09-25T17:22:32.998Z,57.20
2017-09-25T17:25:00.696Z,57.00
2017-09-25T17:29:55.932Z,59.00
2017-09-25T17:32:23.601Z,57.80
2017-09-25T17:34:51.240Z,58.60
2017-09-25T17:37:18.867Z,58.20
2017-09-25T17:39:46.538Z,57.70
2017-09-25T17:42:14.170Z,59.10
2017-09-25T17:44:41.781Z,59.20
2017-09-25T17:49:48.560Z,59.70
2017-09-25T17:52:16.253Z,59.90
2017-09-25T17:54:43.872Z,59.20
2017-09-25T17:57:11.484Z,60.10
2017-09-25T17:59:39.228Z,59.80
2017-09-25T18:02:06.843Z,60.20
2017-09-25T18:04:34.468Z,59.50
2017-09-25T18:07:02.140Z,59.10
2017-09-25T18:09:29.760Z,58.90
2017-09-25T18:11:57.392Z,59.00
2017-09-25T18:14:25.071Z,59.20
2017-09-25T18:16:52.698Z,59.90
2017-09-25T18:19:20.960Z,60.60
2017-09-25T18:21:48.518Z,61.00
2017-09-25T18:24:16.209Z,61.00
2017-09-25T18:26:43.753Z,60.60
2017-09-25T18:29:11.461Z,60.30
2017-09-25T18:31:39.084Z,59.70
2017-09-25T18:34:06.705Z,59.50
2017-09-25T18:36:34.394Z,60.30
2017-09-25T18:41:42.179Z,60.00
2017-09-25T18:44:09.832Z,60.00
2017-09-25T18:46:37.676Z,59.70
2017-09-25T18:49:05.572Z,60.20
2017-09-25T18:54:00.764Z,60.40
2017-09-25T18:56:28.474Z,60.30
2017-09-25T18:58:56.093Z,59.80
2017-09-25T19:01:23.714Z,60.20
2017-09-25T19:03:51.415Z,60.30
2017-09-25T19:06:19.048Z,62.90
2017-09-25T19:08:46.669Z,64.80
2017-09-25T19:11:14.339Z,65.50
2017-09-25T19:13:41.949Z,65.70
2017-09-25T19:16:09.585Z,64.90
2017-09-25T19:18:37.289Z,64.30
2017-09-25T19:21:04.922Z,64.70
2017-09-25T19:23:32.540Z,65.40
2017-09-25T19:26:00.223Z,66.40
2017-09-25T19:28:27.850Z,66.40
2017-09-25T19:30:55.600Z,66.80
2017-09-25T19:33:23.171Z,67.10
2017-09-25T19:35:50.838Z,67.40
2017-09-25T19:38:18.472Z,67.00
2017-09-25T19:40:46.170Z,66.40
2017-09-25T19:43:13.798Z,65.90
2017-09-25T19:45:41.418Z,66.30
2017-09-25T19:53:29.578Z,65.80
2017-09-25T20:01:18.929Z,65.30
2017-09-25T20:03:46.624Z,66.10
2017-09-25T20:06:14.261Z,65.60
2017-09-25T20:08:41.998Z,65.70
2017-09-25T20:11:10.635Z,66.80
2017-09-25T20:13:38.255Z,66.70
2017-09-25T20:18:44.679Z,65.60
2017-09-25T20:21:12.323Z,64.20
2017-09-25T20:23:39.946Z,62.50
2017-09-25T20:26:07.630Z,62.20
2017-09-25T20:28:35.252Z,62.80
2017-09-25T20:31:02.952Z,63.80
2017-09-25T20:33:30.637Z,63.00
2017-09-25T20:35:58.262Z,63.00
2017-09-25T20:38:25.904Z,63.30
2017-09-25T20:40:56.591Z,63.10
2017-09-25T20:46:05.977Z,64.10
2017-09-25T20:48:33.567Z,64.30
2017-09-25T20:51:01.214Z,64.30
2017-09-25T20:53:28.920Z,62.20
2017-09-25T20:55:56.556Z,63.10
2017-09-25T20:58:24.199Z,63.10
2017-09-25T21:00:51.904Z,63.60
2017-09-25T21:03:19.520Z,63.90
2017-09-25T21:05:47.151Z,63.70
2017-09-25T21:08:14.852Z,64.30
2017-09-25T21:10:42.515Z,63.60
2017-09-25T21:13:10.167Z,63.40
2017-09-25T21:15:37.843Z,65.00
2017-09-25T21:18:07.908Z,65.60
2017-09-25T21:20:35.466Z,66.20
2017-09-25T21:23:03.064Z,66.40
2017-09-25T21:25:30.649Z,66.30
2017-09-25T21:27:58.301Z,66.00
2017-09-25T21:30:26.009Z,65.90
2017-09-25T21:32:53.634Z,66.10
2017-09-25T21:37:49.469Z,68.20
2017-09-25T21:40:17.029Z,69.60
2017-09-25T21:42:44.649Z,70.60
2017-09-25T21:45:12.325Z,70.20
2017-09-25T21:47:39.953Z,70.60
2017-09-25T21:50:07.587Z,71.60
2017-09-25T21:52:35.285Z,72.00
2017-09-25T21:55:02.907Z,71.80
2017-09-25T21:59:58.201Z,72.80
2017-09-25T22:02:25.834Z,71.70
2017-09-25T22:04:53.459Z,71.30
2017-09-25T22:07:21.140Z,71.10
2017-09-25T22:09:48.765Z,71.10
2017-09-25T22:14:55.555Z,70.60
2017-09-25T22:17:23.194Z,71.20
2017-09-25T22:19:50.788Z,72.00
2017-09-25T22:22:18.468Z,72.20
2017-09-25T22:24:46.086Z,71.70
2017-09-25T22:27:13.709Z,72.60
2017-09-25T22:29:41.401Z,72.40
2017-09-25T22:32:09.868Z,73.60
2017-09-25T22:34:37.461Z,73.60
2017-09-25T22:37:05.128Z,74.40
2017-09-25T22:39:32.755Z,75.00
2017-09-25T22:42:00.390Z,74.00
2017-09-25T22:44:28.881Z,73.30
2017-09-25T22:46:56.504Z,73.50
2017-09-25T22:49:24.165Z,74.60
2017-09-25T22:51:51.856Z,76.10
2017-09-25T22:54:19.475Z,76.20
2017-09-25T22:56:47.097Z,77.40
2017-09-25T22:59:14.783Z,76.90
2017-09-25T23:01:42.402Z,77.10
2017-09-25T23:04:15.633Z,77.10
2017-09-25T23:06:43.247Z,77.20
2017-09-25T23:16:58.179Z,78.30
2017-09-25T23:19:25.795Z,76.00
2017-09-25T23:21:53.416Z,74.90
2017-09-25T23:24:21.091Z,74.10
2017-09-25T23:26:48.713Z,73.70
2017-09-25T23:29:16.333Z,73.80
2017-09-25T23:31:44.027Z,73.30
2017-09-25T23:34:11.642Z,72.70
2017-09-25T23:36:39.260Z,73.10
2017-09-25T23:39:06.935Z,73.20
2017-09-25T23:41:34.547Z,73.10
2017-09-25T23:44:02.168Z,72.70
2017-09-25T23:46:29.857Z,72.40
2017-09-25T23:48:57.471Z,71.70
2017-09-25T23:53:52.749Z,72.10
2017-09-25T23:56:20.362Z,71.30
2017-09-25T23:58:47.979Z,71.40
